Time;durP1;ratioP1;P1;durP2;ratioP2;P2;SDS_P1;SDS_P2;PMS_P1;PMS_P2;Temp;Humidity;BMP_temperature;BMP_pressure;BME280_temperature;BME280_humidity;BME280_pressure;Samples;Min_cycle;Max_cycle;Signal;HPM_P1;HPM_P2
2022/09/27 00:01:12;;;;;;;5.43;2.80;;;15.70;99.90;;;;;;4976859;28;20376;-71
2022/09/27 00:03:40;;;;;;;3.58;2.30;;;15.60;99.90;;;;;;4976692;28;20037;-71
2022/09/27 00:06:28;;;;;;;3.72;2.10;;;15.70;99.90;;;;;;4976670;28;20026;-71
2022/09/27 00:08:57;;;;;;;3.45;2.22;;;15.70;99.90;;;;;;4975686;28;20097;-71
2022/09/27 00:11:32;;;;;;;3.55;2.58;;;15.80;99.90;;;;;;4976216;28;20435;-71
2022/09/27 00:14:01;;;;;;;2.58;2.38;;;15.80;99.90;;;;;;4976584;28;20030;-72
2022/09/27 00:16:33;;;;;;;3.38;2.60;;;15.90;99.90;;;;;;4976606;28;20368;-72
2022/09/27 00:19:03;;;;;;;2.80;2.10;;;15.90;99.90;;;;;;4976481;28;20074;-71
2022/09/27 00:21:31;;;;;;;3.67;2.78;;;15.80;99.90;;;;;;4976601;28;20027;-71
2022/09/27 00:23:59;;;;;;;5.75;2.72;;;15.90;99.90;;;;;;4976548;28;20023;-71
2022/09/27 00:26:28;;;;;;;2.90;2.60;;;15.90;99.90;;;;;;4976389;28;20025;-71
2022/09/27 00:28:56;;;;;;;3.33;2.45;;;15.90;99.90;;;;;;4976309;28;20031;-71
2022/09/27 00:31:28;;;;;;;3.75;2.38;;;16.00;99.90;;;;;;4976051;28;20134;-71
2022/09/27 00:33:57;;;;;;;3.88;2.53;;;16.10;99.90;;;;;;4976086;28;20034;-71
2022/09/27 00:36:26;;;;;;;2.90;2.15;;;16.20;99.90;;;;;;4976586;28;20042;-71
2022/09/27 00:38:54;;;;;;;4.72;3.05;;;16.30;99.90;;;;;;4976014;28;20489;-71
2022/09/27 00:41:31;;;;;;;3.38;2.65;;;16.50;99.90;;;;;;4976066;28;20027;-71
2022/09/27 00:44:03;;;;;;;2.55;2.00;;;16.60;99.90;;;;;;4975927;28;20495;-71
2022/09/27 00:47:02;;;;;;;2.83;2.22;;;16.60;99.90;;;;;;4975968;28;20027;-71
2022/09/27 00:49:42;;;;;;;4.18;2.08;;;16.70;99.90;;;;;;4975771;28;20030;-71
2022/09/27 00:52:32;;;;;;;7.70;2.00;;;16.80;99.90;;;;;;4976030;28;20023;-71
2022/09/27 00:55:09;;;;;;;4.07;1.95;;;16.80;99.90;;;;;;4975942;28;20110;-71
2022/09/27 00:57:38;;;;;;;3.90;2.17;;;16.90;99.90;;;;;;4975886;28;20472;-71
2022/09/27 01:00:09;;;;;;;3.20;1.95;;;17.00;99.90;;;;;;4975551;28;20043;-71
2022/09/27 01:02:43;;;;;;;3.80;2.08;;;17.00;99.90;;;;;;4975546;28;20033;-71
2022/09/27 01:05:14;;;;;;;2.10;1.75;;;17.00;99.90;;;;;;4975791;28;20049;-71
2022/09/27 01:07:42;;;;;;;3.05;1.88;;;17.10;99.90;;;;;;4975540;28;20026;-70
2022/09/27 01:10:10;;;;;;;2.88;1.85;;;17.30;99.90;;;;;;4975562;28;20030;-70
2022/09/27 01:13:15;;;;;;;2.83;1.60;;;17.40;99.90;;;;;;4975507;28;20038;-71
2022/09/27 01:15:43;;;;;;;3.35;1.90;;;17.50;99.90;;;;;;4973549;28;20039;-71
2022/09/27 01:18:32;;;;;;;2.38;1.30;;;17.50;99.90;;;;;;4975273;28;20061;-71
2022/09/27 01:21:16;;;;;;;3.42;1.73;;;17.50;99.90;;;;;;4975419;28;20081;-71
2022/09/27 01:24:01;;;;;;;2.17;1.58;;;17.50;99.90;;;;;;4974531;28;20027;-70
2022/09/27 01:27:03;;;;;;;3.22;1.48;;;17.60;99.90;;;;;;4975284;28;20070;-70
2022/09/27 01:30:00;;;;;;;2.40;1.55;;;17.70;99.90;;;;;;4974917;28;20047;-70
2022/09/27 01:32:37;;;;;;;2.78;1.60;;;17.80;99.90;;;;;;4975297;28;20080;-70
2022/09/27 01:35:49;;;;;;;2.65;1.45;;;17.90;99.90;;;;;;4975067;28;20033;-70
2022/09/27 01:38:38;;;;;;;3.03;1.83;;;17.90;99.90;;;;;;4956486;28;20530;-70
2022/09/27 01:41:32;;;;;;;2.53;1.67;;;17.90;99.90;;;;;;4975121;28;20077;-70
2022/09/27 01:44:22;;;;;;;1.67;1.02;;;18.10;99.90;;;;;;4974748;28;20035;-70
2022/09/27 01:47:02;;;;;;;2.50;1.58;;;18.30;99.90;;;;;;4973501;28;20072;-70
2022/09/27 01:49:48;;;;;;;1.27;1.10;;;18.30;99.90;;;;;;4974792;28;20035;-70
2022/09/27 01:52:22;;;;;;;2.55;1.10;;;18.30;99.90;;;;;;4974918;28;20058;-69
2022/09/27 01:54:55;;;;;;;2.80;1.38;;;18.20;99.90;;;;;;4975002;28;20058;-70
2022/09/27 01:57:31;;;;;;;3.88;1.33;;;18.30;99.90;;;;;;4975252;28;20380;-70
2022/09/27 02:00:04;;;;;;;2.03;1.08;;;18.40;99.90;;;;;;4974732;28;20035;-70
2022/09/27 02:02:37;;;;;;;7.63;1.50;;;18.50;99.90;;;;;;4974863;28;20033;-70
2022/09/27 02:05:09;;;;;;;2.63;1.15;;;18.60;99.90;;;;;;4974933;28;20542;-70
2022/09/27 02:07:55;;;;;;;2.00;1.05;;;18.70;99.90;;;;;;4974679;28;20046;-70
2022/09/27 02:10:28;;;;;;;;;;;18.80;99.90;;;;;;4974921;28;20030;-70
2022/09/27 02:13:07;;;;;;;2.00;1.17;;;19.00;99.90;;;;;;4974519;28;19906;-70
2022/09/27 02:15:47;;;;;;;1.85;1.20;;;19.20;99.90;;;;;;4974735;28;20114;-70
2022/09/27 02:18:21;;;;;;;2.30;1.40;;;19.10;99.90;;;;;;4974661;28;20391;-70
2022/09/27 02:20:57;;;;;;;1.48;1.08;;;19.20;99.90;;;;;;4974493;28;20038;-70
2022/09/27 02:23:41;;;;;;;1.70;1.00;;;19.20;99.90;;;;;;4974558;28;20051;-70
2022/09/27 02:26:14;;;;;;;2.88;0.80;;;19.10;99.90;;;;;;4974577;28;20545;-70
2022/09/27 02:28:51;;;;;;;1.40;0.98;;;18.90;99.90;;;;;;4974625;28;20469;-70
2022/09/27 02:31:19;;;;;;;2.80;1.35;;;18.80;99.90;;;;;;4974340;28;20089;-70
2022/09/27 02:33:55;;;;;;;1.30;1.10;;;18.70;99.90;;;;;;4975588;28;20019;-70
2022/09/27 02:36:22;;;;;;;1.95;1.30;;;18.60;99.90;;;;;;4978513;28;20019;-70
2022/09/27 02:38:50;;;;;;;1.73;0.90;;;18.60;99.90;;;;;;4978345;28;20058;-70
2022/09/27 02:41:20;;;;;;;1.83;1.02;;;18.50;99.90;;;;;;4978195;28;20109;-69
2022/09/27 02:43:54;;;;;;;2.78;1.40;;;18.40;99.90;;;;;;4978201;28;20029;-69
2022/09/27 02:46:40;;;;;;;1.88;1.05;;;18.40;99.90;;;;;;4978123;28;20428;-69
2022/09/27 02:49:32;;;;;;;1.92;1.27;;;18.40;99.90;;;;;;4978238;28;20082;-69
2022/09/27 02:52:38;;;;;;;6.63;1.25;;;18.40;99.90;;;;;;4977931;28;20085;-69
2022/09/27 02:55:07;;;;;;;1.92;1.20;;;18.50;99.90;;;;;;4978105;28;20361;-68
2022/09/27 02:57:43;;;;;;;1.80;1.00;;;18.70;99.90;;;;;;4977807;28;20039;-69
2022/09/27 03:00:20;;;;;;;1.85;1.00;;;18.80;99.90;;;;;;4978164;28;20035;-69
2022/09/27 03:02:56;;;;;;;2.15;1.17;;;18.90;99.90;;;;;;4978114;28;20022;-69
2022/09/27 03:05:30;;;;;;;1.50;0.98;;;18.80;99.90;;;;;;4976498;28;20487;-69
2022/09/27 03:07:57;;;;;;;1.80;1.10;;;18.80;99.90;;;;;;4977875;28;20077;-69
2022/09/27 03:10:27;;;;;;;2.15;1.10;;;18.80;99.90;;;;;;4977564;28;20027;-69
2022/09/27 03:12:57;;;;;;;1.75;1.27;;;19.00;99.90;;;;;;4977701;28;20034;-69
2022/09/27 03:15:28;;;;;;;1.70;1.20;;;19.20;99.90;;;;;;4977549;28;20065;-69
2022/09/27 03:17:55;;;;;;;1.38;1.23;;;19.20;99.90;;;;;;4977600;28;20055;-69
2022/09/27 03:20:23;;;;;;;1.83;0.90;;;19.30;99.90;;;;;;4977988;28;20030;-70
2022/09/27 03:22:53;;;;;;;2.95;0.90;;;19.40;99.90;;;;;;4977336;28;20027;-69
2022/09/27 03:25:20;;;;;;;1.38;0.90;;;19.60;99.90;;;;;;4977666;28;20085;-70
2022/09/27 03:27:48;;;;;;;5.53;1.10;;;19.60;99.90;;;;;;4977441;28;20031;-70
2022/09/27 03:30:17;;;;;;;1.92;1.35;;;19.60;99.90;;;;;;4977132;28;20074;-70
2022/09/27 03:32:45;;;;;;;2.05;1.10;;;19.60;99.90;;;;;;4977335;28;20090;-69
2022/09/27 03:35:13;;;;;;;4.10;1.05;;;19.60;99.90;;;;;;4977433;28;20487;-69
2022/09/27 03:37:41;;;;;;;1.67;0.93;;;19.60;99.90;;;;;;4977233;28;20387;-69
2022/09/27 03:40:09;;;;;;;1.63;0.90;;;19.70;99.90;;;;;;4977098;28;20045;-69
2022/09/27 03:42:38;;;;;;;1.48;0.82;;;19.80;99.90;;;;;;4977120;28;20027;-70
2022/09/27 03:45:06;;;;;;;2.55;1.02;;;19.80;99.90;;;;;;4975274;28;20031;-69
2022/09/27 03:47:36;;;;;;;1.88;1.10;;;19.70;99.90;;;;;;4977116;28;20022;-69
2022/09/27 03:50:04;;;;;;;1.70;0.88;;;19.60;99.90;;;;;;4976988;28;20023;-69
2022/09/27 03:52:31;;;;;;;1.63;0.88;;;19.50;99.90;;;;;;4976872;28;20539;-69
2022/09/27 03:54:58;;;;;;;1.35;0.93;;;19.40;99.90;;;;;;4976835;28;20050;-70
2022/09/27 03:57:26;;;;;;;2.03;0.70;;;19.30;99.90;;;;;;4976925;28;20030;-70
2022/09/27 03:59:53;;;;;;;2.00;1.08;;;19.30;99.90;;;;;;4976799;28;20035;-69
2022/09/27 04:02:20;;;;;;;2.22;1.00;;;19.20;99.90;;;;;;4976785;28;20130;-69
2022/09/27 04:04:48;;;;;;;1.63;1.05;;;19.00;99.90;;;;;;4976634;28;20034;-70
2022/09/27 04:07:16;;;;;;;2.05;1.25;;;19.00;99.90;;;;;;4976836;28;20105;-70
2022/09/27 04:09:45;;;;;;;3.78;0.98;;;18.90;99.90;;;;;;4976544;28;20570;-70
2022/09/27 04:12:13;;;;;;;2.08;1.20;;;18.90;99.90;;;;;;4976608;28;20053;-70
2022/09/27 04:14:41;;;;;;;2.80;1.10;;;19.00;99.90;;;;;;4976691;28;20026;-70
2022/09/27 04:17:08;;;;;;;4.90;1.42;;;19.00;99.90;;;;;;4976393;28;20102;-70
2022/09/27 04:19:36;;;;;;;2.33;1.50;;;18.90;99.90;;;;;;4976443;28;20424;-69
2022/09/27 04:22:03;;;;;;;2.95;1.15;;;18.90;99.90;;;;;;4976546;28;20090;-70
2022/09/27 04:24:31;;;;;;;3.28;1.40;;;18.90;99.90;;;;;;4976453;28;20376;-69
2022/09/27 04:26:59;;;;;;;2.13;1.17;;;19.00;99.90;;;;;;4976510;28;20027;-69
2022/09/27 04:29:27;;;;;;;2.83;1.38;;;19.20;99.90;;;;;;4975924;28;20035;-69
2022/09/27 04:31:54;;;;;;;3.28;1.15;;;19.10;99.90;;;;;;4976262;28;20185;-70
2022/09/27 04:36:25;;;;;;;2.28;1.35;;;18.90;99.90;;;;;;4976211;28;20069;-69
2022/09/27 04:37:12;;;;;;;4.70;1.30;;;18.80;99.90;;;;;;4976216;28;20039;-69
2022/09/27 04:39:40;;;;;;;3.63;1.50;;;18.70;99.90;;;;;;4976161;28;20069;-69
2022/09/27 04:42:08;;;;;;;2.25;1.30;;;18.60;99.90;;;;;;4976046;28;20026;-69
2022/09/27 04:44:35;;;;;;;1.48;1.08;;;18.60;99.90;;;;;;4976146;28;20448;-69
2022/09/27 04:47:02;;;;;;;2.13;1.10;;;18.50;99.90;;;;;;4975965;28;20420;-69
2022/09/27 04:49:30;;;;;;;3.30;1.10;;;18.50;99.90;;;;;;4975775;28;20131;-70
2022/09/27 04:51:57;;;;;;;3.35;1.30;;;18.50;99.90;;;;;;4976037;28;20029;-70
2022/09/27 04:54:24;;;;;;;5.05;1.30;;;18.50;99.90;;;;;;4975962;28;20082;-69
2022/09/27 04:56:52;;;;;;;3.30;1.48;;;18.60;99.90;;;;;;4974872;28;20451;-69
2022/09/27 04:59:19;;;;;;;2.80;1.50;;;18.80;99.90;;;;;;4975423;28;20042;-69
2022/09/27 05:01:48;;;;;;;3.10;1.40;;;19.00;99.90;;;;;;4975553;28;20081;-69
2022/09/27 05:04:15;;;;;;;1.92;1.38;;;19.10;99.90;;;;;;4975795;28;20042;-69
2022/09/27 05:06:42;;;;;;;1.92;1.20;;;19.20;99.90;;;;;;4975728;28;20023;-69
2022/09/27 05:09:10;;;;;;;2.78;1.23;;;19.30;99.90;;;;;;4975727;28;20030;-70
2022/09/27 05:11:37;;;;;;;2.30;1.50;;;19.30;99.90;;;;;;4975294;28;20034;-70
2022/09/27 05:14:05;;;;;;;2.65;1.20;;;19.40;99.90;;;;;;4976028;28;20030;-69
2022/09/27 05:16:35;;;;;;;2.10;1.10;;;19.40;99.90;;;;;;4975527;28;20224;-70
2022/09/27 05:19:03;;;;;;;2.90;1.13;;;19.30;99.90;;;;;;4975159;28;20546;-69
2022/09/27 05:21:30;;;;;;;3.40;1.25;;;19.20;99.90;;;;;;4975481;28;20022;-70
2022/09/27 05:23:59;;;;;;;2.45;1.10;;;19.10;99.90;;;;;;4975208;28;20394;-70
2022/09/27 05:26:27;;;;;;;2.45;1.13;;;19.00;99.90;;;;;;4975267;28;20034;-69
2022/09/27 05:28:54;;;;;;;2.17;0.98;;;19.00;99.90;;;;;;4975123;28;20038;-70
2022/09/27 05:31:22;;;;;;;2.72;0.90;;;19.00;99.90;;;;;;4975032;28;20054;-70
2022/09/27 05:33:49;;;;;;;3.50;1.20;;;19.10;99.90;;;;;;4975219;28;20027;-69
2022/09/27 05:36:16;;;;;;;6.07;1.52;;;19.20;99.90;;;;;;4975264;28;20027;-70
2022/09/27 05:38:44;;;;;;;1.88;1.20;;;19.20;99.90;;;;;;4975050;28;20038;-70
2022/09/27 05:41:12;;;;;;;2.38;0.93;;;19.20;99.90;;;;;;4975036;28;20031;-70
2022/09/27 05:43:39;;;;;;;3.20;1.50;;;19.10;99.90;;;;;;4973828;28;20031;-70
2022/09/27 05:46:06;;;;;;;2.30;1.00;;;19.00;99.90;;;;;;4975298;28;20491;-70
2022/09/27 05:48:34;;;;;;;2.38;1.05;;;19.00;99.90;;;;;;4974867;28;20050;-71
2022/09/27 05:51:01;;;;;;;1.20;0.80;;;18.90;99.90;;;;;;4974745;28;20108;-70
2022/09/27 05:53:29;;;;;;;6.05;1.45;;;18.90;99.90;;;;;;4974781;28;20074;-70
2022/09/27 05:56:00;;;;;;;3.42;1.42;;;18.90;99.90;;;;;;4974915;28;20113;-70
2022/09/27 05:58:27;;;;;;;2.85;0.98;;;18.90;99.90;;;;;;4974754;28;20106;-70
2022/09/27 06:00:54;;;;;;;1.58;1.00;;;18.80;99.90;;;;;;4974725;28;20062;-70
2022/09/27 06:03:22;;;;;;;3.70;1.30;;;18.80;99.90;;;;;;4974705;28;20027;-70
2022/09/27 06:05:49;;;;;;;1.55;0.80;;;18.70;99.90;;;;;;4974686;28;20110;-69
2022/09/27 06:08:19;;;;;;;2.53;1.40;;;18.50;99.90;;;;;;4974408;28;20531;-70
2022/09/27 06:10:46;;;;;;;1.55;0.90;;;18.40;99.90;;;;;;4974643;28;20522;-70
2022/09/27 06:13:17;;;;;;;1.00;0.77;;;18.30;99.90;;;;;;4974737;28;20464;-70
2022/09/27 06:15:46;;;;;;;4.05;1.80;;;18.20;99.90;;;;;;4974632;28;20035;-70
2022/09/27 06:18:17;;;;;;;2.40;1.00;;;18.10;99.90;;;;;;4974471;28;20563;-70
2022/09/27 06:20:45;;;;;;;2.70;1.20;;;18.00;99.90;;;;;;4973405;28;20110;-70
2022/09/27 06:23:17;;;;;;;6.88;1.20;;;17.90;99.90;;;;;;4974574;28;20027;-70
2022/09/27 06:25:46;;;;;;;1.60;1.10;;;17.90;99.90;;;;;;4974807;28;20030;-70
2022/09/27 06:28:15;;;;;;;2.38;1.40;;;17.80;99.90;;;;;;4974626;28;20498;-70
2022/09/27 06:30:45;;;;;;;4.70;1.13;;;17.80;99.90;;;;;;4974182;28;20063;-71
2022/09/27 06:33:18;;;;;;;2.58;1.25;;;17.70;99.90;;;;;;4974608;28;20366;-71
2022/09/27 06:35:48;;;;;;;2.80;1.00;;;17.60;99.90;;;;;;4974620;28;20023;-70
2022/09/27 06:38:17;;;;;;;3.20;1.58;;;17.60;99.90;;;;;;4974581;28;20027;-71
2022/09/27 06:40:45;;;;;;;2.67;1.40;;;17.50;99.90;;;;;;4974387;28;20061;-71
2022/09/27 06:43:15;;;;;;;7.25;1.58;;;17.50;99.90;;;;;;4974254;28;20037;-71
2022/09/27 06:45:43;;;;;;;3.83;1.17;;;17.40;99.90;;;;;;4974433;28;20026;-70
2022/09/27 06:48:12;;;;;;;3.05;1.40;;;17.40;99.90;;;;;;4974415;28;20464;-70
2022/09/27 06:50:43;;;;;;;4.65;1.48;;;17.40;99.90;;;;;;4974137;28;20391;-70
2022/09/27 06:53:12;;;;;;;1.80;1.05;;;17.30;99.90;;;;;;4974360;28;20050;-70
2022/09/27 06:55:40;;;;;;;4.28;1.40;;;17.20;99.90;;;;;;4974159;28;20046;-70
2022/09/27 07:00:57;;;;;;;5.72;1.52;;;17.10;99.90;;;;;;4974567;28;20423;-69
2022/09/27 07:03:33;;;;;;;2.40;1.30;;;17.10;99.90;;;;;;4974077;28;20015;-70
2022/09/27 07:06:03;;;;;;;3.05;1.25;;;17.00;99.90;;;;;;4974076;28;20404;-70
2022/09/27 07:08:31;;;;;;;7.82;1.98;;;17.00;99.90;;;;;;4974231;28;20034;-70
2022/09/27 07:11:07;;;;;;;3.08;1.40;;;16.90;99.90;;;;;;4974074;28;20023;-70
2022/09/27 07:13:39;;;;;;;2.92;1.48;;;16.90;99.90;;;;;;4974341;28;20019;-70
2022/09/27 07:16:06;;;;;;;2.03;1.15;;;16.80;99.90;;;;;;4974135;28;20031;-70
2022/09/27 07:18:34;;;;;;;2.97;1.95;;;16.80;99.90;;;;;;4973872;28;20399;-70
2022/09/27 07:21:01;;;;;;;1.88;1.13;;;16.80;99.90;;;;;;4975559;28;20522;-71
2022/09/27 07:23:28;;;;;;;3.08;1.63;;;16.80;99.90;;;;;;4977480;28;20086;-70
2022/09/27 07:25:56;;;;;;;4.43;1.95;;;16.70;99.90;;;;;;4977609;28;20029;-71
2022/09/27 07:28:23;;;;;;;2.15;1.50;;;16.60;99.90;;;;;;4977581;28;20438;-71
2022/09/27 07:30:55;;;;;;;2.13;1.40;;;16.70;99.90;;;;;;4977026;28;20558;-70
2022/09/27 07:33:23;;;;;;;3.08;1.63;;;16.60;99.90;;;;;;4977381;28;20387;-70
2022/09/27 07:35:50;;;;;;;2.50;1.48;;;16.60;99.90;;;;;;4977247;28;20395;-70
2022/09/27 07:38:17;;;;;;;7.10;1.88;;;16.50;99.90;;;;;;4977214;28;20082;-70
2022/09/27 07:40:45;;;;;;;3.88;1.52;;;16.60;99.90;;;;;;4977260;28;20498;-70
2022/09/27 07:43:12;;;;;;;4.93;1.33;;;16.60;99.90;;;;;;4976986;28;20027;-70
2022/09/27 07:45:40;;;;;;;2.97;1.55;;;16.50;99.90;;;;;;4977135;28;20539;-70
2022/09/27 07:48:10;;;;;;;5.20;1.75;;;16.40;99.90;;;;;;4977144;28;20049;-70
2022/09/27 07:50:37;;;;;;;3.50;1.58;;;16.30;99.90;;;;;;4977064;28;20030;-70
2022/09/27 07:53:05;;;;;;;4.95;2.05;;;16.30;99.90;;;;;;4977019;28;20026;-70
2022/09/27 07:55:32;;;;;;;4.78;1.27;;;16.30;99.90;;;;;;4977089;28;20027;-70
2022/09/27 07:58:08;;;;;;;4.97;1.50;;;16.20;99.90;;;;;;4976828;28;20503;-70
2022/09/27 08:00:37;;;;;;;7.70;1.60;;;16.20;99.90;;;;;;4976909;28;20047;-70
2022/09/27 08:03:09;;;;;;;2.55;1.23;;;16.10;99.90;;;;;;4976844;28;20023;-70
2022/09/27 08:05:37;;;;;;;4.50;1.55;;;16.10;99.90;;;;;;4976859;28;20058;-70
2022/09/27 08:08:05;;;;;;;2.35;1.50;;;16.10;99.90;;;;;;4976942;28;20019;-70
2022/09/27 08:10:33;;;;;;;3.45;1.65;;;16.10;99.90;;;;;;4976669;28;20158;-70
2022/09/27 08:13:05;;;;;;;5.65;1.50;;;16.00;99.90;;;;;;4976665;28;20042;-71
2022/09/27 08:15:37;;;;;;;4.32;1.60;;;16.00;99.90;;;;;;4976629;28;20388;-70
2022/09/27 08:18:10;;;;;;;5.10;1.38;;;16.00;99.90;;;;;;4976645;28;20022;-70
2022/09/27 08:20:38;;;;;;;2.72;1.50;;;16.00;99.90;;;;;;4976590;28;20038;-70
2022/09/27 08:23:06;;;;;;;3.97;2.03;;;16.00;99.90;;;;;;4976321;28;20027;-70
2022/09/27 08:25:34;;;;;;;5.25;1.70;;;15.90;99.90;;;;;;4976494;28;20488;-70
2022/09/27 08:28:06;;;;;;;4.30;2.00;;;15.90;99.90;;;;;;4976469;28;20034;-71
2022/09/27 08:30:33;;;;;;;3.85;1.52;;;15.90;99.90;;;;;;4976013;28;20042;-71
2022/09/27 08:33:02;;;;;;;5.22;1.73;;;15.80;99.90;;;;;;4975949;28;20078;-71
2022/09/27 08:35:32;;;;;;;5.10;1.70;;;15.80;99.90;;;;;;4976416;28;20089;-70
2022/09/27 08:38:01;;;;;;;2.67;1.40;;;15.70;99.90;;;;;;4976370;28;20076;-70
2022/09/27 08:40:51;;;;;;;4.60;1.38;;;15.80;99.90;;;;;;4976044;28;20027;-70
2022/09/27 08:43:36;;;;;;;2.17;1.27;;;15.80;99.90;;;;;;4976183;28;20110;-70
2022/09/27 08:46:15;;;;;;;13.07;1.45;;;15.90;99.90;;;;;;4976300;28;20022;-70
2022/09/27 08:48:43;;;;;;;4.40;1.58;;;15.90;99.90;;;;;;4976052;28;20086;-70
2022/09/27 08:51:15;;;;;;;4.25;1.67;;;15.70;99.90;;;;;;4975829;28;20484;-70
2022/09/27 08:54:11;;;;;;;5.55;1.52;;;15.70;99.90;;;;;;4975814;28;20038;-70
2022/09/27 08:56:39;;;;;;;4.22;1.63;;;15.60;99.90;;;;;;4975855;28;20492;-70
2022/09/27 08:59:19;;;;;;;6.90;1.25;;;15.60;99.90;;;;;;4975721;28;20047;-70
2022/09/27 09:01:48;;;;;;;4.05;1.42;;;15.50;99.90;;;;;;4975921;28;20027;-70
2022/09/27 09:04:26;;;;;;;2.58;1.50;;;15.40;99.90;;;;;;4975822;28;20042;-70
2022/09/27 09:07:16;;;;;;;2.28;1.10;;;15.30;99.90;;;;;;4975477;28;20423;-71
2022/09/27 09:10:08;;;;;;;2.92;1.40;;;15.30;99.90;;;;;;4975518;28;20109;-70
2022/09/27 09:12:57;;;;;;;4.13;1.65;;;15.30;99.90;;;;;;4975603;28;20027;-70
2022/09/27 09:15:25;;;;;;;3.20;1.30;;;15.30;99.90;;;;;;4975483;28;20498;-70
2022/09/27 09:18:22;;;;;;;2.03;1.33;;;15.30;99.90;;;;;;4975452;28;20439;-70
2022/09/27 09:21:23;;;;;;;2.80;1.50;;;15.30;99.90;;;;;;4975308;28;20062;-70
2022/09/27 09:24:12;;;;;;;3.38;1.40;;;15.30;99.90;;;;;;4975455;28;20105;-70
2022/09/27 09:27:13;;;;;;;4.45;1.98;;;15.30;99.90;;;;;;4975460;28;20023;-70
2022/09/27 09:30:00;;;;;;;3.80;1.23;;;15.30;99.90;;;;;;4979940;28;20377;-70
2022/09/27 09:32:45;;;;;;;3.00;1.55;;;15.30;99.90;;;;;;4986848;28;20038;-70
2022/09/27 09:35:41;;;;;;;2.88;1.58;;;15.30;99.90;;;;;;4990434;28;20030;-70
2022/09/27 09:38:19;;;;;;;2.35;1.50;;;15.30;99.90;;;;;;4982892;28;20030;-70
2022/09/27 09:40:53;;;;;;;1.70;1.00;;;15.30;99.90;;;;;;4985072;28;20038;-70
2022/09/27 09:43:30;;;;;;;2.25;1.30;;;15.30;99.90;;;;;;4984921;28;20015;-70
2022/09/27 09:46:38;;;;;;;7.75;1.90;;;15.40;99.90;;;;;;4983854;28;20050;-70
2022/09/27 09:49:27;;;;;;;3.03;1.50;;;15.30;99.90;;;;;;4984494;28;20023;-69
2022/09/27 09:52:18;;;;;;;4.28;1.20;;;15.40;99.90;;;;;;4983963;28;20018;-70
2022/09/27 09:54:55;;;;;;;3.65;1.77;;;15.30;99.90;;;;;;4983822;28;20026;-70
2022/09/27 09:57:43;;;;;;;2.92;1.52;;;15.30;99.90;;;;;;4983696;28;20026;-70
2022/09/27 10:00:18;;;;;;;2.63;1.85;;;15.30;99.90;;;;;;4983779;28;20121;-70
2022/09/27 10:02:48;;;;;;;4.10;1.63;;;15.30;99.90;;;;;;4983792;28;20407;-70
2022/09/27 10:05:21;;;;;;;3.55;1.42;;;15.30;99.90;;;;;;4982311;28;20815;-70
2022/09/27 10:07:51;;;;;;;2.38;1.27;;;15.30;99.90;;;;;;4983078;28;20110;-70
2022/09/27 10:10:20;;;;;;;7.53;1.75;;;15.30;99.90;;;;;;4983377;28;20049;-70
2022/09/27 10:12:48;;;;;;;6.07;1.52;;;15.30;99.90;;;;;;4982785;28;20535;-70
2022/09/27 10:15:22;;;;;;;2.33;0.90;;;15.30;99.90;;;;;;4983643;28;20494;-70
2022/09/27 10:17:56;;;;;;;1.80;1.30;;;15.20;99.90;;;;;;4983815;28;20091;-70
2022/09/27 10:20:41;;;;;;;2.72;1.10;;;15.20;99.90;;;;;;4981877;28;20086;-70
2022/09/27 10:23:20;;;;;;;2.28;1.45;;;15.30;99.90;;;;;;4975594;28;20103;-70
2022/09/27 10:25:58;;;;;;;1.88;1.10;;;15.30;99.90;;;;;;4975179;28;20534;-70
2022/09/27 10:28:38;;;;;;;6.22;1.38;;;15.30;99.90;;;;;;4974604;28;20065;-70
2022/09/27 10:31:17;;;;;;;2.35;1.30;;;15.30;99.90;;;;;;4980263;28;20035;-68
2022/09/27 10:34:04;;;;;;;4.70;1.33;;;15.20;99.90;;;;;;4983413;28;20460;-70
2022/09/27 10:36:35;;;;;;;2.83;1.58;;;15.20;99.90;;;;;;4983917;28;20452;-70
2022/09/27 10:39:05;;;;;;;2.63;1.42;;;15.20;99.90;;;;;;4984425;28;20056;-70
2022/09/27 10:41:37;;;;;;;4.28;1.35;;;15.20;99.90;;;;;;4984787;28;20023;-70
2022/09/27 10:44:17;;;;;;;4.57;1.52;;;15.20;99.90;;;;;;4987736;28;20033;-70
2022/09/27 10:46:46;;;;;;;2.78;1.38;;;15.20;99.90;;;;;;4987629;28;20446;-70
2022/09/27 10:49:22;;;;;;;3.25;1.73;;;15.10;99.90;;;;;;4987769;28;20034;-70
2022/09/27 10:52:02;;;;;;;2.95;1.13;;;15.10;99.90;;;;;;4983194;28;20029;-71
2022/09/27 10:54:32;;;;;;;2.92;1.30;;;15.00;99.90;;;;;;4974637;28;20551;-70
2022/09/27 10:57:21;;;;;;;3.78;1.58;;;15.00;99.90;;;;;;4979629;28;20035;-69
2022/09/27 11:00:02;;;;;;;6.30;1.88;;;14.90;99.90;;;;;;4978831;28;20034;-70
2022/09/27 11:02:36;;;;;;;6.10;1.73;;;14.90;99.90;;;;;;4979976;28;20387;-70
2022/09/27 11:05:30;;;;;;;3.88;2.08;;;14.80;99.90;;;;;;4980105;28;20026;-70
2022/09/27 11:08:01;;;;;;;3.17;1.35;;;14.70;99.90;;;;;;4977526;28;20019;-71
2022/09/27 11:10:31;;;;;;;3.67;1.98;;;14.70;99.90;;;;;;4975947;28;20026;-70
2022/09/27 11:13:15;;;;;;;3.47;1.90;;;14.70;99.90;;;;;;4978627;28;20030;-70
2022/09/27 11:16:10;;;;;;;2.60;1.85;;;14.70;99.90;;;;;;4989145;28;20046;-70
2022/09/27 11:19:07;;;;;;;4.75;1.90;;;14.70;99.90;;;;;;4988320;28;20033;-69
2022/09/27 11:21:47;;;;;;;7.20;2.17;;;14.60;99.90;;;;;;4986519;28;20026;-70
2022/09/27 11:24:48;;;;;;;4.25;1.80;;;14.60;99.90;;;;;;4986883;28;20014;-70
2022/09/27 11:27:40;;;;;;;5.78;3.03;;;14.60;99.90;;;;;;4977058;28;20054;-69
2022/09/27 11:30:17;;;;;;;5.38;2.00;;;14.60;99.90;;;;;;4976801;28;20049;-70
2022/09/27 11:33:20;;;;;;;4.43;1.90;;;14.50;99.90;;;;;;4977964;28;20034;-69
2022/09/27 11:35:50;;;;;;;3.40;2.30;;;14.50;99.90;;;;;;4995460;28;20068;-72
2022/09/27 11:38:49;;;;;;;7.50;2.28;;;14.40;99.90;;;;;;4985389;28;20435;-71
2022/09/27 11:41:36;;;;;;;3.88;2.13;;;14.40;99.90;;;;;;4991119;28;20026;-71
2022/09/27 11:44:27;;;;;;;5.85;2.22;;;14.30;99.90;;;;;;4991762;28;20022;-72
2022/09/27 11:47:21;;;;;;;4.68;2.05;;;14.30;99.90;;;;;;4991840;28;20018;-71
2022/09/27 11:49:57;;;;;;;5.45;1.60;;;14.50;99.90;;;;;;4984961;28;20110;-71
2022/09/27 11:52:27;;;;;;;7.43;2.83;;;14.60;99.90;;;;;;4986363;28;20022;-71
2022/09/27 11:55:04;;;;;;;3.33;2.13;;;14.70;99.90;;;;;;4985263;28;20033;-71
2022/09/27 11:57:44;;;;;;;7.85;2.67;;;14.70;99.90;;;;;;4985391;28;20041;-72
2022/09/27 12:00:17;;;;;;;4.68;2.17;;;14.80;99.90;;;;;;4987009;28;20027;-71
2022/09/27 12:02:52;;;;;;;4.72;2.33;;;14.70;99.90;;;;;;4986112;28;20018;-70
2022/09/27 12:05:32;;;;;;;3.75;2.33;;;14.70;99.90;;;;;;4985487;28;20106;-70
2022/09/27 12:08:23;;;;;;;6.97;2.90;;;14.70;99.90;;;;;;4984779;28;20064;-69
2022/09/27 12:11:05;;;;;;;6.07;2.88;;;14.70;99.90;;;;;;4986620;28;20472;-70
2022/09/27 12:13:42;;;;;;;6.68;2.55;;;14.60;99.90;;;;;;4986978;28;20068;-70
2022/09/27 12:16:14;;;;;;;6.35;2.78;;;14.60;99.90;;;;;;4986624;28;20098;-71
2022/09/27 12:18:42;;;;;;;6.38;3.00;;;14.60;99.90;;;;;;4985401;28;20026;-71
2022/09/27 12:21:11;;;;;;;8.93;2.70;;;14.60;99.90;;;;;;4985042;28;20014;-71
2022/09/27 12:23:58;;;;;;;3.03;2.47;;;14.60;99.90;;;;;;4986750;28;20034;-71
2022/09/27 12:26:29;;;;;;;5.90;3.00;;;14.60;99.90;;;;;;4985957;28;20085;-71
2022/09/27 12:29:04;;;;;;;3.75;2.58;;;14.60;99.90;;;;;;4984588;28;20472;-70
2022/09/27 12:31:42;;;;;;;4.93;1.92;;;14.60;99.90;;;;;;4984551;28;20035;-71
2022/09/27 12:34:16;;;;;;;3.63;2.47;;;14.60;99.90;;;;;;4986249;28;20105;-70
2022/09/27 12:37:09;;;;;;;3.53;1.98;;;14.60;99.90;;;;;;4991113;28;20117;-72
2022/09/27 12:39:51;;;;;;;5.18;2.55;;;14.60;99.90;;;;;;4990154;28;20046;-70
2022/09/27 12:42:41;;;;;;;2.92;2.53;;;14.60;99.90;;;;;;4995648;28;20034;-72
2022/09/27 12:45:16;;;;;;;8.93;2.85;;;14.60;99.90;;;;;;4995621;28;20034;-72
2022/09/27 12:47:50;;;;;;;;;;;14.60;99.90;;;;;;4996002;28;20446;-72
2022/09/27 12:50:44;;;;;;;5.55;2.35;;;14.60;99.90;;;;;;4995642;28;20350;-72
2022/09/27 12:53:50;;;;;;;7.32;2.60;;;14.60;99.90;;;;;;4995418;28;20030;-69
2022/09/27 12:56:32;;;;;;;7.28;3.17;;;14.60;99.90;;;;;;4995340;28;20081;-71
2022/09/27 12:59:18;;;;;;;4.55;3.03;;;14.60;99.90;;;;;;4995438;28;20048;-71
2022/09/27 13:02:03;;;;;;;;;;;14.60;99.90;;;;;;4995564;28;20033;-70
2022/09/27 13:04:36;;;;;;;7.45;2.47;;;14.60;99.90;;;;;;4995143;28;19906;-69
2022/09/27 13:07:26;;;;;;;2.60;2.30;;;14.60;99.90;;;;;;4995135;28;20124;-72
2022/09/27 13:10:29;;;;;;;6.18;2.90;;;14.50;99.90;;;;;;4995199;28;20018;-71
2022/09/27 13:13:17;;;;;;;5.80;2.90;;;14.50;99.90;;;;;;4995045;28;20092;-70
2022/09/27 13:15:45;;;;;;;5.28;3.28;;;14.50;99.90;;;;;;4995090;28;20463;-68
2022/09/27 13:18:34;;;;;;;7.95;3.30;;;14.50;99.90;;;;;;4993930;28;20035;-68
2022/09/27 13:21:09;;;;;;;4.78;3.55;;;14.50;99.90;;;;;;4995247;28;20124;-69
2022/09/27 13:23:39;;;;;;;6.63;3.30;;;14.50;99.90;;;;;;4994914;28;20037;-69
2022/09/27 13:26:31;;;;;;;8.05;3.88;;;14.50;99.90;;;;;;4995424;28;20420;-71
2022/09/27 13:29:02;;;;;;;4.30;3.30;;;14.50;99.90;;;;;;4994636;28;20042;-69
2022/09/27 13:31:53;;;;;;;6.78;3.53;;;14.50;99.90;;;;;;4994358;28;20054;-71